Jomi — C6VK4 — position and weather

sailwx.info

Track history (hours):
 
Tides and Currents Weather Stations Pressure Air Temp Water Temp Dewpoint Dewpoint Depression Visibility Wind Speed Wind Dir Waves Ship Positions

Jomi

Last reported at 2014-Sep-02 20:25 UTC. Time now 2014-Sep-02 21:24 UTC.
Position N 52°24' E 004°52'.

Length 88 m; draft 4.1 m.

Type: Cargo ship. MMSI: 309701000.

Date/timePositionNaut miles runAvg speedWind from/ knotsBaromVisibWave heightAir tempDewpointWater temp
2014-Sep-02 20:25N 52°24' E 004°52'0 0.0
2014-Sep-02 19:28N 52°24' E 004°52'0 0.0
2014-Sep-02 18:33N 52°24' E 004°52'0 0.0
2014-Sep-02 17:33N 52°24' E 004°52'0 0.0
2014-Sep-02 16:32N 52°24' E 004°52'0 0.3
2014-Sep-02 15:31N 52°24' E 004°52'0 0.0
2014-Sep-02 14:30N 52°24' E 004°52'0 0.0
2014-Sep-02 13:33N 52°24' E 004°52'0 0.5
2014-Sep-02 12:34N 52°24' E 004°53'8 7.9
2014-Sep-02 11:33N 52°27' E 004°41'6 6.4
2014-Sep-02 10:33N 52°28' E 004°30'1111.4
2014-Sep-02 09:33N 52°29' E 004°11'1111.4
2014-Sep-02 08:33N 52°26' E 003°53'7111.8
2014-Sep-02 02:33N 51°38' E 002°28'1110.6
2014-Sep-02 01:32N 51°30' E 002°16'11 9.4
2014-Sep-02 00:20N 51°20' E 002°07'7 9.0
2014-Sep-01 23:33N 51°14' E 002°03'9 9.4
2014-Sep-01 22:33N 51°08' E 001°51'5 5.5
2014-Sep-01 21:33N 51°03' E 001°52'1311.8
2014-Sep-01 20:30N 51°04' E 002°12'6 5.8
2014-Sep-01 19:32N 51°03' E 002°21'3 2.6
2014-Sep-01 18:31N 51°03' E 002°17'0 0.0
2014-Sep-01 17:31N 51°03' E 002°17'0 0.0
2014-Sep-01 16:28N 51°03' E 002°17'0 0.0
2014-Sep-01 15:28N 51°03' E 002°17'0 0.0
2014-Sep-01 14:28N 51°03' E 002°17'0 0.0
2014-Sep-01 13:22N 51°03' E 002°17'0 0.0
2014-Sep-01 12:31N 51°03' E 002°17'0 0.0
2014-Sep-01 11:19N 51°03' E 002°17'0 0.0
2014-Sep-01 10:31N 51°03' E 002°17'0 0.0
2014-Sep-01 09:19N 51°03' E 002°17'0 0.0
2014-Sep-01 08:07N 51°03' E 002°17'0 0.0
2014-Sep-01 07:31N 51°03' E 002°17'0 0.0
2014-Sep-01 06:31N 51°03' E 002°17'0 0.0
2014-Sep-01 05:25N 51°03' E 002°17'0 0.0
2014-Sep-01 04:31N 51°03' E 002°17'0 0.0
2014-Sep-01 03:31N 51°03' E 002°17'0 0.0
2014-Sep-01 02:31N 51°03' E 002°17'0 0.0
2014-Sep-01 01:31N 51°03' E 002°17'0 0.0
2014-Sep-01 00:31N 51°03' E 002°17'0 0.0
2014-Aug-31 23:31N 51°03' E 002°17'0 0.0
2014-Aug-31 22:31N 51°03' E 002°17'0 0.0
2014-Aug-31 20:31N 51°03' E 002°17'0 0.0
2014-Aug-31 19:31N 51°03' E 002°17'0 0.0
2014-Aug-31 18:28N 51°03' E 002°17'0 0.0
2014-Aug-31 17:31N 51°03' E 002°17'0 0.0
2014-Aug-31 16:22N 51°03' E 002°17'0 0.0
2014-Aug-31 15:31N 51°03' E 002°17'0 0.0
2014-Aug-31 14:28N 51°03' E 002°17'0 0.0
2014-Aug-31 13:28N 51°03' E 002°17'0 0.0
2014-Aug-31 12:33N 51°03' E 002°17'0 0.0
2014-Aug-31 11:34N 51°03' E 002°17'0 0.0
2014-Aug-31 10:33N 51°03' E 002°17'0 0.3
2014-Aug-31 09:32N 51°03' E 002°17'3 2.9
2014-Aug-31 08:33N 51°03' E 002°21'4 4.3
2014-Aug-31 07:33N 51°04' E 002°14'20 9.9
2014-Aug-31 05:30N 51°05' E 001°42'8 8.2
2014-Aug-31 04:33N 51°12' E 001°45'8 8.4
2014-Aug-31 03:33N 51°19' E 001°53'9 8.9
2014-Aug-31 02:33N 51°27' E 002°00'1110.0
2014-Aug-31 01:27N 51°35' E 002°12'15110.1
2014-Aug-30 10:32N 53°31' E 004°52'8 8.1
2014-Aug-30 09:33N 53°34' E 005°05'8 7.9
2014-Aug-30 08:33N 53°36' E 005°17'8 7.7
2014-Aug-30 07:33N 53°39' E 005°30'8 8.2
2014-Aug-30 06:33N 53°41' E 005°43'70 9.9
2014-Aug-29 23:33N 54°00' E 007°36'9 9.0
2014-Aug-29 22:33N 54°01' E 007°51'9 9.2
2014-Aug-29 21:33N 54°01' E 008°07'1010.1
2014-Aug-29 20:33N 53°59' E 008°24'1212.4
2014-Aug-29 19:33N 53°53' E 008°42'1312.6
2014-Aug-29 18:33N 53°52' E 009°04'3 3.2
2014-Aug-29 17:33N 53°54' E 009°09'7 7.3
2014-Aug-29 16:33N 53°59' E 009°17'9 8.5
2014-Aug-29 15:33N 54°08' E 009°20'9 8.2
2014-Aug-29 14:31N 54°12' E 009°33'63 5.8
2014-Aug-29 03:28N 54°35' E 011°14'1011.4
2014-Aug-29 02:33N 54°31' E 011°31'1111.2
2014-Aug-29 01:33N 54°27' E 011°49'1111.2
2014-Aug-29 00:33N 54°27' E 012°08'1010.3
2014-Aug-28 23:33N 54°37' E 012°16'1110.6
2014-Aug-28 22:33N 54°43' E 012°31'1010.4
2014-Aug-28 21:33N 54°47' E 012°47'1111.4
2014-Aug-28 20:33N 54°47' E 013°07'1211.7
2014-Aug-28 19:33N 54°46' E 013°27'1111.1
2014-Aug-28 18:33N 54°44' E 013°46'1111.0
2014-Aug-28 17:33N 54°41' E 014°05'1110.9
2014-Aug-28 16:33N 54°38' E 014°23'1110.8
2014-Aug-28 15:33N 54°39' E 014°41'11510.4
2014-Aug-28 04:33N 54°55' E 017°58'1010.4
2014-Aug-28 03:33N 54°56' E 018°16'1010.3
2014-Aug-28 02:33N 54°56' E 018°34'1010.4
2014-Aug-28 01:33N 54°52' E 018°51'1010.2
2014-Aug-28 00:33N 54°49' E 019°08'1010.1
2014-Aug-27 23:34N 54°46' E 019°24'10 9.9
2014-Aug-27 22:33N 54°42' E 019°41'9 9.0
2014-Aug-27 21:33N 54°38' E 019°54'  
Track history (hours):
 
Tides and Currents Weather Stations Pressure Air Temp Water Temp Dewpoint Dewpoint Depression Visibility Wind Speed Wind Dir Waves Ship Positions

Jomi

Last reported at 2014-Sep-02 20:25 UTC. Time now 2014-Sep-02 21:24 UTC.
Position N 52°24' E 004°52'.

Length 88 m; draft 4.1 m.

Type: Cargo ship. MMSI: 309701000.

Date/timePositionNaut miles runAvg speedWind from/ knotsBaromVisibWave heightAir tempDewpointWater temp
2014-Sep-02 20:25N 52°24' E 004°52'0 0.0
2014-Sep-02 19:28N 52°24' E 004°52'0 0.0
2014-Sep-02 18:33N 52°24' E 004°52'0 0.0
2014-Sep-02 17:33N 52°24' E 004°52'0 0.0
2014-Sep-02 16:32N 52°24' E 004°52'0 0.3
2014-Sep-02 15:31N 52°24' E 004°52'0 0.0
2014-Sep-02 14:30N 52°24' E 004°52'0 0.0
2014-Sep-02 13:33N 52°24' E 004°52'0 0.5
2014-Sep-02 12:34N 52°24' E 004°53'8 7.9
2014-Sep-02 11:33N 52°27' E 004°41'6 6.4
2014-Sep-02 10:33N 52°28' E 004°30'1111.4
2014-Sep-02 09:33N 52°29' E 004°11'1111.4
2014-Sep-02 08:33N 52°26' E 003°53'7111.8
2014-Sep-02 02:33N 51°38' E 002°28'1110.6
2014-Sep-02 01:32N 51°30' E 002°16'11 9.4
2014-Sep-02 00:20N 51°20' E 002°07'7 9.0
2014-Sep-01 23:33N 51°14' E 002°03'9 9.4
2014-Sep-01 22:33N 51°08' E 001°51'5 5.5
2014-Sep-01 21:33N 51°03' E 001°52'1311.8
2014-Sep-01 20:30N 51°04' E 002°12'6 5.8
2014-Sep-01 19:32N 51°03' E 002°21'3 2.6
2014-Sep-01 18:31N 51°03' E 002°17'0 0.0
2014-Sep-01 17:31N 51°03' E 002°17'0 0.0
2014-Sep-01 16:28N 51°03' E 002°17'0 0.0
2014-Sep-01 15:28N 51°03' E 002°17'0 0.0
2014-Sep-01 14:28N 51°03' E 002°17'0 0.0
2014-Sep-01 13:22N 51°03' E 002°17'0 0.0
2014-Sep-01 12:31N 51°03' E 002°17'0 0.0
2014-Sep-01 11:19N 51°03' E 002°17'0 0.0
2014-Sep-01 10:31N 51°03' E 002°17'0 0.0
2014-Sep-01 09:19N 51°03' E 002°17'0 0.0
2014-Sep-01 08:07N 51°03' E 002°17'0 0.0
2014-Sep-01 07:31N 51°03' E 002°17'0 0.0
2014-Sep-01 06:31N 51°03' E 002°17'0 0.0
2014-Sep-01 05:25N 51°03' E 002°17'0 0.0
2014-Sep-01 04:31N 51°03' E 002°17'0 0.0
2014-Sep-01 03:31N 51°03' E 002°17'0 0.0
2014-Sep-01 02:31N 51°03' E 002°17'0 0.0
2014-Sep-01 01:31N 51°03' E 002°17'0 0.0
2014-Sep-01 00:31N 51°03' E 002°17'0 0.0
2014-Aug-31 23:31N 51°03' E 002°17'0 0.0
2014-Aug-31 22:31N 51°03' E 002°17'0 0.0
2014-Aug-31 20:31N 51°03' E 002°17'0 0.0
2014-Aug-31 19:31N 51°03' E 002°17'0 0.0
2014-Aug-31 18:28N 51°03' E 002°17'0 0.0
2014-Aug-31 17:31N 51°03' E 002°17'0 0.0
2014-Aug-31 16:22N 51°03' E 002°17'0 0.0
2014-Aug-31 15:31N 51°03' E 002°17'0 0.0
2014-Aug-31 14:28N 51°03' E 002°17'0 0.0
2014-Aug-31 13:28N 51°03' E 002°17'0 0.0
2014-Aug-31 12:33N 51°03' E 002°17'0 0.0
2014-Aug-31 11:34N 51°03' E 002°17'0 0.0
2014-Aug-31 10:33N 51°03' E 002°17'0 0.3
2014-Aug-31 09:32N 51°03' E 002°17'3 2.9
2014-Aug-31 08:33N 51°03' E 002°21'4 4.3
2014-Aug-31 07:33N 51°04' E 002°14'20 9.9
2014-Aug-31 05:30N 51°05' E 001°42'8 8.2
2014-Aug-31 04:33N 51°12' E 001°45'8 8.4
2014-Aug-31 03:33N 51°19' E 001°53'9 8.9
2014-Aug-31 02:33N 51°27' E 002°00'1110.0
2014-Aug-31 01:27N 51°35' E 002°12'15110.1
2014-Aug-30 10:32N 53°31' E 004°52'8 8.1
2014-Aug-30 09:33N 53°34' E 005°05'8 7.9
2014-Aug-30 08:33N 53°36' E 005°17'8 7.7
2014-Aug-30 07:33N 53°39' E 005°30'8 8.2
2014-Aug-30 06:33N 53°41' E 005°43'70 9.9
2014-Aug-29 23:33N 54°00' E 007°36'9 9.0
2014-Aug-29 22:33N 54°01' E 007°51'9 9.2
2014-Aug-29 21:33N 54°01' E 008°07'1010.1
2014-Aug-29 20:33N 53°59' E 008°24'1212.4
2014-Aug-29 19:33N 53°53' E 008°42'1312.6
2014-Aug-29 18:33N 53°52' E 009°04'3 3.2
2014-Aug-29 17:33N 53°54' E 009°09'7 7.3
2014-Aug-29 16:33N 53°59' E 009°17'9 8.5
2014-Aug-29 15:33N 54°08' E 009°20'9 8.2
2014-Aug-29 14:31N 54°12' E 009°33'63 5.8
2014-Aug-29 03:28N 54°35' E 011°14'1011.4
2014-Aug-29 02:33N 54°31' E 011°31'1111.2
2014-Aug-29 01:33N 54°27' E 011°49'1111.2
2014-Aug-29 00:33N 54°27' E 012°08'1010.3
2014-Aug-28 23:33N 54°37' E 012°16'1110.6
2014-Aug-28 22:33N 54°43' E 012°31'1010.4
2014-Aug-28 21:33N 54°47' E 012°47'1111.4
2014-Aug-28 20:33N 54°47' E 013°07'1211.7
2014-Aug-28 19:33N 54°46' E 013°27'1111.1
2014-Aug-28 18:33N 54°44' E 013°46'1111.0
2014-Aug-28 17:33N 54°41' E 014°05'1110.9
2014-Aug-28 16:33N 54°38' E 014°23'1110.8
2014-Aug-28 15:33N 54°39' E 014°41'11510.4
2014-Aug-28 04:33N 54°55' E 017°58'1010.4
2014-Aug-28 03:33N 54°56' E 018°16'1010.3
2014-Aug-28 02:33N 54°56' E 018°34'1010.4
2014-Aug-28 01:33N 54°52' E 018°51'1010.2
2014-Aug-28 00:33N 54°49' E 019°08'1010.1
2014-Aug-27 23:34N 54°46' E 019°24'10 9.9
2014-Aug-27 22:33N 54°42' E 019°41'9 9.0
2014-Aug-27 21:33N 54°38' E 019°54'  

Dump ship's entire track history